Time;durP1;ratioP1;P1;durP2;ratioP2;P2;SDS_P1;SDS_P2;PMS_P1;PMS_P2;Temp;Humidity;BMP_temperature;BMP_pressure;BME280_temperature;BME280_humidity;BME280_pressure;Samples;Min_cycle;Max_cycle;Signal;HPM_P1;HPM_P2
2023/04/14 00:01:15;;;;;;;8.38;2.65;;;5.20;99.90;;;;;;5028225;28;20047;-69
2023/04/14 00:03:41;;;;;;;7.57;2.72;;;5.10;99.90;;;;;;5002540;28;20034;-69
2023/04/14 00:06:06;;;;;;;7.32;2.65;;;5.10;99.90;;;;;;5009777;28;20512;-69
2023/04/14 00:08:32;;;;;;;12.05;2.58;;;5.00;99.90;;;;;;5014477;28;20160;-70
2023/04/14 00:10:57;;;;;;;11.75;2.63;;;5.00;99.90;;;;;;5010487;28;20084;-70
2023/04/14 00:13:23;;;;;;;7.95;2.88;;;4.90;99.90;;;;;;5013858;28;20378;-70
2023/04/14 00:15:48;;;;;;;8.50;3.45;;;4.90;99.90;;;;;;5001826;28;20045;-69
2023/04/14 00:18:14;;;;;;;9.23;2.83;;;4.80;99.90;;;;;;5011900;28;20041;-70
2023/04/14 00:20:40;;;;;;;9.32;2.33;;;4.70;99.90;;;;;;4989636;28;20069;-70
2023/04/14 00:23:05;;;;;;;5.82;2.45;;;4.70;99.90;;;;;;5002079;28;20049;-70
2023/04/14 00:25:31;;;;;;;3.80;2.13;;;4.70;99.90;;;;;;5003164;28;20057;-70
2023/04/14 00:27:56;;;;;;;6.63;2.20;;;4.60;99.90;;;;;;5007372;28;20037;-71
2023/04/14 00:30:22;;;;;;;7.03;2.95;;;4.60;99.90;;;;;;5006611;28;20033;-70
2023/04/14 00:32:47;;;;;;;2.78;1.92;;;4.70;99.90;;;;;;5002300;28;20048;-70
2023/04/14 00:35:13;;;;;;;3.40;1.88;;;4.80;99.90;;;;;;5000994;28;20131;-70
2023/04/14 00:37:38;;;;;;;9.07;2.60;;;4.80;99.90;;;;;;5008940;28;20677;-69
2023/04/14 00:40:07;;;;;;;4.15;1.70;;;4.90;99.90;;;;;;4998688;28;20041;-70
2023/04/14 00:42:41;;;;;;;9.98;2.67;;;4.90;99.90;;;;;;5012766;28;20893;-69
2023/04/14 00:45:06;;;;;;;4.63;1.75;;;5.00;99.90;;;;;;5013046;28;20455;-69
2023/04/14 00:47:32;;;;;;;5.80;2.00;;;5.00;99.90;;;;;;4999532;28;20113;-69
2023/04/14 00:49:57;;;;;;;6.75;1.90;;;5.00;99.90;;;;;;5016143;28;20037;-69
2023/04/14 00:52:24;;;;;;;3.95;1.80;;;4.90;99.90;;;;;;5031870;28;20551;-70
2023/04/14 00:54:49;;;;;;;4.38;1.60;;;4.90;99.90;;;;;;5004371;28;20045;-70
2023/04/14 00:57:15;;;;;;;8.80;2.15;;;4.80;99.90;;;;;;5010226;28;20102;-69
2023/04/14 00:59:41;;;;;;;4.20;1.75;;;4.70;99.90;;;;;;5002062;28;20144;-69
2023/04/14 01:02:07;;;;;;;8.07;2.17;;;4.70;99.90;;;;;;5000914;28;20106;-69
2023/04/14 01:04:32;;;;;;;6.55;1.95;;;4.60;99.90;;;;;;5007187;28;20052;-69
2023/04/14 01:06:58;;;;;;;6.85;2.28;;;4.50;99.90;;;;;;5014973;28;20374;-69
2023/04/14 01:09:24;;;;;;;7.53;2.00;;;4.40;99.90;;;;;;5016895;28;20128;-68
2023/04/14 01:12:06;;;;;;;5.85;2.17;;;4.30;99.90;;;;;;5003862;28;20115;-68
2023/04/14 01:14:54;;;;;;;7.22;2.00;;;4.20;99.90;;;;;;5004770;28;20040;-69
2023/04/14 01:17:58;;;;;;;4.00;1.60;;;4.10;99.90;;;;;;5004546;28;20038;-69
2023/04/14 01:20:48;;;;;;;5.78;1.77;;;4.00;99.90;;;;;;4988350;28;20045;-67
2023/04/14 01:23:50;;;;;;;5.15;2.13;;;3.90;99.90;;;;;;5001144;28;20128;-70
2023/04/14 01:26:42;;;;;;;11.02;2.67;;;3.80;99.90;;;;;;5006057;28;20045;-69
2023/04/14 01:29:45;;;;;;;8.55;2.58;;;3.70;99.90;;;;;;5004493;28;20479;-69
2023/04/14 01:32:15;;;;;;;6.15;2.50;;;3.60;99.90;;;;;;5018456;28;20056;-70
2023/04/14 01:34:55;;;;;;;7.47;2.78;;;3.50;99.90;;;;;;5017385;28;20065;-69
2023/04/14 01:37:30;;;;;;;12.63;2.97;;;3.50;99.90;;;;;;5002435;28;20038;-69
2023/04/14 01:40:06;;;;;;;10.15;3.30;;;3.50;99.90;;;;;;4988852;28;20048;-68
2023/04/14 01:42:35;;;;;;;8.52;2.45;;;3.60;99.90;;;;;;4986684;28;20041;-68
2023/04/14 01:45:14;;;;;;;6.72;2.70;;;3.50;99.90;;;;;;5008385;28;20049;-68
2023/04/14 01:47:42;;;;;;;9.50;2.50;;;3.50;99.90;;;;;;5003437;28;20112;-68
2023/04/14 01:50:09;;;;;;;4.63;2.65;;;3.50;99.90;;;;;;5001133;28;20045;-68
2023/04/14 01:52:36;;;;;;;5.28;2.63;;;3.50;99.90;;;;;;4985519;28;20025;-69
2023/04/14 01:55:05;;;;;;;8.68;2.65;;;3.50;99.90;;;;;;5002950;28;20112;-69
2023/04/14 01:57:34;;;;;;;7.57;2.83;;;3.50;99.90;;;;;;5012082;28;20452;-68
2023/04/14 02:00:01;;;;;;;4.55;2.40;;;3.60;99.90;;;;;;5002941;28;20405;-69
2023/04/14 02:02:28;;;;;;;6.35;2.28;;;3.60;99.90;;;;;;5008765;28;20389;-69
2023/04/14 02:04:56;;;;;;;7.40;2.80;;;3.60;99.90;;;;;;5006954;28;20060;-69
2023/04/14 02:07:23;;;;;;;5.88;2.70;;;3.70;99.90;;;;;;5010071;28;20623;-70
2023/04/14 02:09:52;;;;;;;5.13;2.42;;;3.70;99.90;;;;;;5016559;28;20033;-69
2023/04/14 02:12:19;;;;;;;5.88;2.63;;;3.70;99.90;;;;;;5009535;28;20049;-69
2023/04/14 02:14:46;;;;;;;6.43;2.33;;;3.70;99.90;;;;;;5017401;28;20035;-69
2023/04/14 02:17:13;;;;;;;6.53;2.67;;;3.70;99.90;;;;;;4997241;28;20049;-69
2023/04/14 02:19:41;;;;;;;5.75;2.67;;;3.70;99.90;;;;;;5010363;28;20053;-69
2023/04/14 02:22:07;;;;;;;7.97;2.60;;;3.60;99.90;;;;;;5013896;28;20091;-71
2023/04/14 02:24:32;;;;;;;5.65;2.53;;;3.60;99.90;;;;;;5030711;28;20117;-69
2023/04/14 02:27:08;;;;;;;4.43;2.72;;;3.60;99.90;;;;;;5016311;28;20041;-69
2023/04/14 02:29:34;;;;;;;5.15;2.83;;;3.60;99.90;;;;;;5003142;28;20128;-69
2023/04/14 02:32:04;;;;;;;4.43;2.33;;;3.60;99.90;;;;;;4995589;28;20042;-68
2023/04/14 02:34:34;;;;;;;7.13;2.90;;;3.60;99.90;;;;;;5011389;28;20048;-68
2023/04/14 02:37:02;;;;;;;3.70;2.20;;;3.60;99.90;;;;;;5002977;28;20549;-67
2023/04/14 02:39:33;;;;;;;5.97;2.47;;;3.60;99.90;;;;;;4983317;28;20093;-68
2023/04/14 02:42:09;;;;;;;9.32;2.90;;;3.60;99.90;;;;;;5014835;28;20049;-69
2023/04/14 02:44:41;;;;;;;8.80;2.60;;;3.70;99.90;;;;;;5003302;28;20044;-69
2023/04/14 02:47:12;;;;;;;8.93;2.72;;;3.70;99.90;;;;;;5002454;28;20099;-69
2023/04/14 02:49:43;;;;;;;4.75;2.47;;;3.70;99.90;;;;;;4998585;28;20046;-70
2023/04/14 02:52:11;;;;;;;8.20;3.47;;;3.80;99.90;;;;;;4988509;28;20081;-70
2023/04/14 02:54:40;;;;;;;5.25;3.08;;;3.90;99.90;;;;;;5023016;28;20524;-68
2023/04/14 02:57:06;;;;;;;6.28;2.70;;;3.90;99.90;;;;;;5003511;28;20056;-70
2023/04/14 02:59:33;;;;;;;7.28;2.88;;;3.90;99.90;;;;;;5020475;28;20038;-69
2023/04/14 03:02:03;;;;;;;8.18;2.60;;;3.90;99.90;;;;;;5005601;28;20049;-69
2023/04/14 03:04:31;;;;;;;8.43;2.88;;;3.90;99.90;;;;;;5002072;28;20048;-69
2023/04/14 03:06:57;;;;;;;4.70;2.50;;;3.90;99.90;;;;;;4984570;28;20064;-69
2023/04/14 03:09:24;;;;;;;5.53;2.65;;;4.00;99.90;;;;;;4990871;28;20041;-68
2023/04/14 03:11:52;;;;;;;8.77;3.10;;;3.90;99.90;;;;;;4994098;28;20405;-68
2023/04/14 03:14:19;;;;;;;3.97;2.60;;;3.90;99.90;;;;;;5007268;28;20069;-70
2023/04/14 03:16:45;;;;;;;8.35;2.97;;;3.90;99.90;;;;;;5005200;28;20045;-68
2023/04/14 03:19:12;;;;;;;9.38;2.97;;;3.90;99.90;;;;;;5004635;28;20087;-71
2023/04/14 03:21:39;;;;;;;8.43;3.10;;;4.00;99.90;;;;;;4999170;28;20124;-69
2023/04/14 03:24:05;;;;;;;8.85;3.30;;;4.00;99.90;;;;;;5003097;28;20049;-68
2023/04/14 03:26:33;;;;;;;5.25;2.75;;;4.00;99.90;;;;;;5004251;28;20347;-68
2023/04/14 03:29:01;;;;;;;5.10;2.90;;;4.00;99.90;;;;;;4998454;28;20037;-68
2023/04/14 03:31:32;;;;;;;7.07;2.95;;;4.00;99.90;;;;;;5000498;28;20034;-71
2023/04/14 03:34:01;;;;;;;7.88;3.00;;;4.00;99.90;;;;;;5000230;28;20047;-69
2023/04/14 03:36:29;;;;;;;8.75;2.83;;;4.10;99.90;;;;;;4999196;28;20060;-69
2023/04/14 03:38:58;;;;;;;7.07;2.42;;;4.10;99.90;;;;;;5007179;28;20033;-69
2023/04/14 03:41:25;;;;;;;7.43;3.13;;;4.10;99.90;;;;;;5004655;28;20099;-70
2023/04/14 03:43:55;;;;;;;9.32;3.22;;;4.20;99.90;;;;;;5001410;28;20136;-69
2023/04/14 03:46:22;;;;;;;;;;;4.20;99.90;;;;;;5016922;28;20046;-69
2023/04/14 03:48:51;;;;;;;6.65;3.15;;;4.20;99.90;;;;;;4999623;28;19921;-69
2023/04/14 03:51:19;;;;;;;6.63;3.33;;;4.20;99.90;;;;;;4999860;28;20045;-69
2023/04/14 03:53:46;;;;;;;6.55;3.45;;;4.20;99.90;;;;;;5001040;28;20080;-69
2023/04/14 03:56:12;;;;;;;6.97;3.40;;;4.10;99.90;;;;;;5009572;28;20077;-69
2023/04/14 03:58:42;;;;;;;9.43;3.38;;;4.10;99.90;;;;;;4986774;28;20060;-70
2023/04/14 04:01:09;;;;;;;6.40;2.90;;;4.10;99.90;;;;;;4999528;28;20504;-69
2023/04/14 04:03:37;;;;;;;5.10;2.95;;;4.00;99.90;;;;;;5003132;28;20099;-69
2023/04/14 04:06:03;;;;;;;11.30;3.20;;;3.90;99.90;;;;;;5003926;28;20097;-68
2023/04/14 04:08:31;;;;;;;6.75;2.70;;;3.80;99.90;;;;;;5009548;28;20075;-69
2023/04/14 04:10:59;;;;;;;6.68;2.83;;;3.80;99.90;;;;;;5013404;28;20469;-69
2023/04/14 04:13:26;;;;;;;6.25;3.20;;;3.60;99.90;;;;;;5011872;28;20092;-68
2023/04/14 04:15:52;;;;;;;6.95;2.92;;;3.60;99.90;;;;;;5011480;28;20038;-68
2023/04/14 04:18:21;;;;;;;6.93;2.80;;;3.50;99.90;;;;;;5009803;28;20048;-69
2023/04/14 04:20:48;;;;;;;10.13;3.60;;;3.40;99.90;;;;;;5012032;28;20472;-69
2023/04/14 04:23:16;;;;;;;6.15;2.70;;;3.30;99.90;;;;;;5006411;28;20060;-69
2023/04/14 04:25:42;;;;;;;4.05;2.80;;;3.30;99.90;;;;;;5013096;28;20518;-68
2023/04/14 04:28:08;;;;;;;6.30;2.92;;;3.20;99.90;;;;;;5011085;28;20386;-68
2023/04/14 04:30:38;;;;;;;5.40;2.75;;;3.10;99.90;;;;;;5013485;28;20038;-68
2023/04/14 04:33:05;;;;;;;8.10;3.05;;;3.00;99.90;;;;;;5013214;28;20088;-70
2023/04/14 04:35:33;;;;;;;6.85;3.38;;;2.90;99.90;;;;;;4992517;28;20046;-69
2023/04/14 04:38:02;;;;;;;5.50;2.70;;;2.90;99.90;;;;;;4994357;28;20037;-68
2023/04/14 04:40:35;;;;;;;7.70;3.17;;;2.90;99.90;;;;;;5006393;28;20045;-68
2023/04/14 04:43:00;;;;;;;5.53;2.83;;;2.80;99.90;;;;;;5005419;28;20091;-69
2023/04/14 04:45:57;;;;;;;6.28;3.00;;;2.80;99.90;;;;;;4982433;28;20045;-69
2023/04/14 04:48:23;;;;;;;7.70;3.33;;;2.80;99.90;;;;;;5002359;28;20099;-69
2023/04/14 04:50:48;;;;;;;6.57;4.05;;;2.80;99.90;;;;;;4998110;28;20981;-69
2023/04/14 04:53:14;;;;;;;9.65;3.10;;;2.80;99.90;;;;;;5000050;28;20080;-69
2023/04/14 04:55:41;;;;;;;8.35;3.03;;;2.80;99.90;;;;;;5008309;28;20046;-71
2023/04/14 04:58:07;;;;;;;7.20;3.10;;;2.80;99.90;;;;;;5007254;28;20460;-68
2023/04/14 05:00:33;;;;;;;5.20;3.40;;;2.90;99.90;;;;;;5010120;28;20132;-68
2023/04/14 05:02:58;;;;;;;7.70;3.20;;;2.90;99.90;;;;;;5009177;28;20148;-69
2023/04/14 05:05:24;;;;;;;7.32;3.00;;;2.90;99.90;;;;;;5006504;28;20048;-69
2023/04/14 05:07:49;;;;;;;8.77;3.40;;;2.90;99.90;;;;;;5008448;28;20054;-69
2023/04/14 05:10:15;;;;;;;11.25;3.60;;;2.90;99.90;;;;;;5006281;28;20037;-69
2023/04/14 05:12:40;;;;;;;10.65;3.53;;;2.90;99.90;;;;;;5008914;28;20092;-68
2023/04/14 05:15:08;;;;;;;7.38;3.55;;;2.90;99.90;;;;;;5003279;28;20618;-71
2023/04/14 05:17:34;;;;;;;12.75;3.40;;;2.90;99.90;;;;;;4997193;28;20108;-68
2023/04/14 05:20:00;;;;;;;9.40;3.00;;;2.90;99.90;;;;;;4992212;28;20041;-68
2023/04/14 05:22:26;;;;;;;7.90;3.25;;;3.00;99.90;;;;;;5006823;28;20049;-68
2023/04/14 05:24:52;;;;;;;7.00;3.28;;;3.00;99.90;;;;;;5005340;28;20052;-69
2023/04/14 05:27:17;;;;;;;13.02;3.78;;;3.10;99.90;;;;;;5012589;28;20064;-68
2023/04/14 05:29:43;;;;;;;7.63;3.40;;;3.10;99.90;;;;;;5007934;28;20041;-69
2023/04/14 05:32:10;;;;;;;11.23;3.47;;;3.20;99.90;;;;;;5005723;28;20041;-68
2023/04/14 05:34:35;;;;;;;10.02;3.97;;;3.20;99.90;;;;;;5006942;28;20033;-68
2023/04/14 05:37:01;;;;;;;5.80;3.72;;;3.30;99.90;;;;;;5005314;28;20076;-68
2023/04/14 05:39:27;;;;;;;9.65;3.78;;;3.50;99.90;;;;;;5004248;28;20095;-68
2023/04/14 05:41:53;;;;;;;9.50;3.78;;;3.70;99.90;;;;;;5015142;28;20632;-69
2023/04/14 05:44:18;;;;;;;10.55;3.50;;;3.90;99.90;;;;;;5005034;28;20486;-69
2023/04/14 05:46:44;;;;;;;8.38;3.67;;;4.00;99.90;;;;;;5002111;28;20485;-69
2023/04/14 05:49:09;;;;;;;6.75;4.85;;;4.20;99.90;;;;;;5001752;28;20044;-70
2023/04/14 05:51:35;;;;;;;7.78;3.85;;;4.40;99.90;;;;;;5002084;28;20037;-69
2023/04/14 05:54:00;;;;;;;8.07;4.25;;;4.50;99.90;;;;;;5000093;28;20065;-69
2023/04/14 05:56:26;;;;;;;11.57;5.15;;;4.80;99.90;;;;;;5003602;28;20128;-68
2023/04/14 05:58:54;;;;;;;10.82;4.50;;;5.00;99.90;;;;;;4991434;28;20077;-69
2023/04/14 06:01:19;;;;;;;9.45;3.90;;;5.20;99.90;;;;;;4988419;28;20583;-70
2023/04/14 06:03:45;;;;;;;10.07;4.15;;;5.40;99.90;;;;;;4986091;28;20172;-70
2023/04/14 06:06:10;;;;;;;7.45;4.07;;;5.50;99.90;;;;;;4989430;28;20066;-69
2023/04/14 06:08:36;;;;;;;12.95;5.05;;;5.70;99.90;;;;;;5004758;28;20049;-70
2023/04/14 06:11:02;;;;;;;6.72;3.60;;;5.90;99.90;;;;;;4977326;28;20034;-67
2023/04/14 06:13:28;;;;;;;6.65;3.95;;;6.00;99.90;;;;;;4994891;28;20034;-67
2023/04/14 06:15:55;;;;;;;8.85;3.78;;;6.20;99.90;;;;;;4991425;28;20053;-70
2023/04/14 06:18:21;;;;;;;8.25;3.63;;;6.40;99.90;;;;;;4977749;28;20128;-68
2023/04/14 06:20:47;;;;;;;8.80;3.58;;;6.50;99.90;;;;;;4984587;28;20038;-69
2023/04/14 06:23:13;;;;;;;6.82;3.40;;;6.70;99.90;;;;;;4993421;28;20371;-69
2023/04/14 06:25:39;;;;;;;4.72;2.97;;;6.90;99.90;;;;;;4994495;28;20034;-68
2023/04/14 06:28:06;;;;;;;6.40;3.35;;;7.10;99.90;;;;;;4986444;28;20041;-69
2023/04/14 06:30:32;;;;;;;6.43;3.60;;;7.30;99.90;;;;;;4970527;28;20610;-69
2023/04/14 06:33:02;;;;;;;6.38;3.00;;;7.50;99.90;;;;;;4994025;28;20030;-69
2023/04/14 06:35:28;;;;;;;;;;;7.60;99.90;;;;;;4992833;28;20038;-68
2023/04/14 06:37:54;;;;;;;12.10;3.35;;;7.80;99.90;;;;;;4993863;28;19971;-68
2023/04/14 06:40:19;;;;;;;6.18;3.13;;;8.00;99.90;;;;;;4993358;28;20048;-69
2023/04/14 06:42:45;;;;;;;7.93;3.45;;;8.20;99.90;;;;;;4995873;28;20042;-68
2023/04/14 06:45:10;;;;;;;4.40;3.13;;;8.40;99.90;;;;;;4975748;28;20043;-68
2023/04/14 06:47:36;;;;;;;7.43;3.70;;;8.60;99.90;;;;;;4994361;28;20060;-69
2023/04/14 06:50:02;;;;;;;9.35;2.85;;;8.70;99.90;;;;;;4977548;28;20097;-69
2023/04/14 06:52:27;;;;;;;4.82;2.60;;;9.00;99.90;;;;;;4975337;28;20034;-69
2023/04/14 06:54:53;;;;;;;7.13;2.70;;;9.20;99.90;;;;;;4992331;28;20133;-69
2023/04/14 06:57:18;;;;;;;5.55;3.05;;;9.40;99.90;;;;;;5013197;28;20049;-70
2023/04/14 06:59:45;;;;;;;9.35;3.28;;;9.70;99.90;;;;;;5012237;28;20041;-68
2023/04/14 07:02:11;;;;;;;7.80;2.90;;;9.90;99.90;;;;;;5009007;28;20029;-67
2023/04/14 07:04:36;;;;;;;8.20;2.60;;;10.00;99.90;;;;;;5009349;28;20087;-68
2023/04/14 07:07:02;;;;;;;3.13;2.55;;;10.30;99.90;;;;;;5012010;28;20045;-66
2023/04/14 07:09:28;;;;;;;7.05;2.88;;;10.40;99.90;;;;;;5008011;28;20404;-68
2023/04/14 07:11:56;;;;;;;5.70;2.75;;;10.60;99.90;;;;;;5011918;28;20045;-68
2023/04/14 07:14:22;;;;;;;4.78;2.58;;;10.80;99.90;;;;;;5011680;28;20041;-68
2023/04/14 07:16:49;;;;;;;7.13;3.38;;;11.10;99.90;;;;;;5010877;28;20056;-68
2023/04/14 07:19:15;;;;;;;7.13;3.25;;;11.30;99.90;;;;;;5000875;28;20060;-68
2023/04/14 07:21:41;;;;;;;6.32;2.78;;;11.50;99.90;;;;;;4994262;28;20405;-69
2023/04/14 07:24:06;;;;;;;5.22;2.55;;;11.70;99.90;;;;;;4999012;28;20096;-67
2023/04/14 07:26:32;;;;;;;7.15;2.33;;;11.90;99.90;;;;;;5014967;28;20038;-68
2023/04/14 07:28:57;;;;;;;5.30;2.10;;;12.10;99.90;;;;;;5027463;28;20546;-68
2023/04/14 07:31:23;;;;;;;6.30;2.15;;;12.20;99.90;;;;;;5014178;28;20061;-68
2023/04/14 07:33:49;;;;;;;6.65;2.20;;;12.40;99.90;;;;;;5010447;28;20029;-68
2023/04/14 07:36:14;;;;;;;6.72;2.38;;;12.60;97.90;;;;;;5007183;28;20045;-68
2023/04/14 07:38:40;;;;;;;4.57;1.95;;;12.80;98.70;;;;;;5010831;28;20037;-67
2023/04/14 07:41:06;;;;;;;6.97;2.25;;;13.00;97.50;;;;;;5013623;28;20057;-67
2023/04/14 07:43:34;;;;;;;5.53;2.08;;;13.20;96.60;;;;;;4997963;28;20033;-67
2023/04/14 07:46:03;;;;;;;3.75;1.98;;;13.40;94.90;;;;;;5001481;28;20091;-66
2023/04/14 07:48:33;;;;;;;6.15;2.47;;;13.50;92.70;;;;;;4995608;28;20033;-67
2023/04/14 07:50:58;;;;;;;5.93;1.90;;;13.60;92.40;;;;;;5007088;28;20044;-68
2023/04/14 07:53:24;;;;;;;8.15;2.25;;;13.90;92.60;;;;;;4993155;28;20037;-69
2023/04/14 07:55:50;;;;;;;5.88;2.13;;;14.10;91.10;;;;;;4983834;28;20053;-69
2023/04/14 07:58:15;;;;;;;5.05;1.90;;;14.30;90.70;;;;;;5003397;28;20454;-68
2023/04/14 08:00:41;;;;;;;10.13;2.28;;;14.30;87.70;;;;;;5001203;28;20124;-68
2023/04/14 08:03:08;;;;;;;6.07;2.08;;;14.10;86.60;;;;;;4997687;28;20048;-67
2023/04/14 08:05:34;;;;;;;5.78;1.80;;;14.10;84.00;;;;;;4990403;28;20129;-69
2023/04/14 08:07:59;;;;;;;8.00;2.30;;;14.00;84.50;;;;;;5000592;28;20437;-69
2023/04/14 08:10:25;;;;;;;6.78;1.98;;;14.00;85.40;;;;;;4994319;28;20531;-68
2023/04/14 08:12:51;;;;;;;7.75;2.00;;;13.80;81.80;;;;;;5009511;28;20473;-69
2023/04/14 08:15:17;;;;;;;7.65;1.92;;;13.60;81.50;;;;;;5004164;28;20072;-69
2023/04/14 08:17:43;;;;;;;7.63;1.60;;;13.50;78.60;;;;;;5010349;28;20045;-67
2023/04/14 08:20:09;;;;;;;11.35;1.92;;;13.50;76.60;;;;;;5008184;28;20045;-68
2023/04/14 08:22:35;;;;;;;7.43;1.95;;;13.60;74.70;;;;;;5009803;28;20080;-68
2023/04/14 08:25:01;;;;;;;6.40;1.70;;;13.50;72.80;;;;;;5012379;28;20052;-67
2023/04/14 08:27:27;;;;;;;5.55;1.20;;;13.60;71.60;;;;;;5009842;28;20041;-69
2023/04/14 08:29:53;;;;;;;6.93;1.77;;;13.70;70.80;;;;;;4995887;28;20505;-68
2023/04/14 08:32:19;;;;;;;6.25;1.48;;;13.90;68.20;;;;;;5006713;28;20037;-69
2023/04/14 08:34:45;;;;;;;6.88;1.40;;;14.30;66.60;;;;;;4998114;28;20576;-66
2023/04/14 08:37:10;;;;;;;5.85;1.65;;;14.60;63.90;;;;;;5014857;28;20037;-68
2023/04/14 08:39:36;;;;;;;4.95;2.00;;;15.30;62.90;;;;;;5012174;28;20033;-68
2023/04/14 08:42:01;;;;;;;8.60;1.75;;;15.60;59.90;;;;;;5016962;28;20033;-68
2023/04/14 08:44:28;;;;;;;6.22;2.30;;;16.00;59.00;;;;;;5015295;28;20044;-67
2023/04/14 08:46:54;;;;;;;6.22;1.42;;;16.40;58.00;;;;;;5015545;28;20045;-68
2023/04/14 08:49:43;;;;;;;4.80;1.30;;;16.50;57.40;;;;;;5013250;28;20046;-68
2023/04/14 08:52:11;;;;;;;5.95;1.55;;;17.00;54.30;;;;;;5014781;28;20470;-69
2023/04/14 08:54:38;;;;;;;8.65;1.40;;;17.20;54.60;;;;;;4999174;28;20484;-67
2023/04/14 08:57:07;;;;;;;4.35;1.20;;;17.70;55.90;;;;;;5013914;28;20044;-68
2023/04/14 08:59:34;;;;;;;5.43;1.60;;;18.10;54.60;;;;;;5031493;28;20037;-68
2023/04/14 09:02:00;;;;;;;4.22;1.50;;;18.30;52.50;;;;;;5015620;28;20112;-68
2023/04/14 09:04:28;;;;;;;7.38;1.65;;;17.90;50.10;;;;;;4998668;28;20037;-68
2023/04/14 09:06:56;;;;;;;5.80;1.48;;;18.00;47.90;;;;;;5013014;28;20049;-67
2023/04/14 09:09:22;;;;;;;7.72;2.22;;;17.80;49.30;;;;;;4997730;28;20469;-67
2023/04/14 09:11:49;;;;;;;5.20;1.75;;;17.60;50.30;;;;;;5002117;28;20037;-67
2023/04/14 09:14:17;;;;;;;6.25;1.67;;;17.50;49.10;;;;;;5016187;28;20041;-67
2023/04/14 09:16:42;;;;;;;9.10;2.17;;;17.50;49.30;;;;;;5016710;28;20141;-67
2023/04/14 09:19:08;;;;;;;8.15;1.58;;;17.60;48.60;;;;;;5032568;28;20120;-70
2023/04/14 09:21:35;;;;;;;9.25;2.10;;;17.60;49.10;;;;;;5014298;28;20393;-68
2023/04/14 09:24:01;;;;;;;6.75;1.70;;;17.70;49.10;;;;;;5010424;28;20045;-66
2023/04/14 09:26:27;;;;;;;8.13;2.20;;;17.50;47.70;;;;;;5013889;28;20038;-67
2023/04/14 09:28:53;;;;;;;6.45;1.80;;;17.20;48.20;;;;;;4990774;28;20048;-67
2023/04/14 09:31:19;;;;;;;4.15;1.25;;;16.80;48.30;;;;;;5016269;28;20045;-67
2023/04/14 09:33:49;;;;;;;5.75;1.45;;;16.60;48.50;;;;;;4999916;28;20102;-67
2023/04/14 09:36:22;;;;;;;7.80;1.65;;;16.20;48.00;;;;;;5014139;28;20447;-67
2023/04/14 09:38:50;;;;;;;7.13;1.70;;;15.90;46.90;;;;;;5013046;28;20056;-69
2023/04/14 09:41:17;;;;;;;3.33;1.58;;;15.40;49.20;;;;;;4994932;28;20084;-67
2023/04/14 09:43:44;;;;;;;7.38;1.60;;;15.30;50.80;;;;;;5005612;28;20049;-66
2023/04/14 09:46:10;;;;;;;6.25;1.52;;;15.10;49.80;;;;;;4999341;28;20405;-68
2023/04/14 09:48:52;;;;;;;6.13;1.80;;;14.90;51.00;;;;;;5014214;28;20546;-68
2023/04/14 09:51:31;;;;;;;6.18;1.80;;;14.90;50.30;;;;;;5013419;28;20053;-68
2023/04/14 09:54:04;;;;;;;4.32;1.85;;;14.90;50.60;;;;;;5015889;28;20050;-68
2023/04/14 09:56:30;;;;;;;5.25;2.10;;;14.80;49.50;;;;;;5016916;28;20481;-68
2023/04/14 09:58:58;;;;;;;8.77;2.00;;;14.80;50.40;;;;;;5014906;28;20124;-68
2023/04/14 10:01:29;;;;;;;7.05;2.35;;;14.70;50.70;;;;;;5005887;28;20057;-66
2023/04/14 10:03:54;;;;;;;6.28;2.50;;;14.70;50.60;;;;;;5014424;28;20088;-68
2023/04/14 10:06:23;;;;;;;6.50;2.13;;;14.70;51.80;;;;;;5012128;28;20045;-67
2023/04/14 10:08:50;;;;;;;5.82;2.30;;;14.70;54.00;;;;;;5032012;28;20033;-68
2023/04/14 10:11:31;;;;;;;4.57;1.77;;;14.60;51.60;;;;;;5012644;28;20034;-68
2023/04/14 10:13:59;;;;;;;3.53;1.95;;;14.60;51.30;;;;;;4997471;28;20048;-68
2023/04/14 10:16:26;;;;;;;6.78;2.30;;;14.70;52.30;;;;;;5005975;28;20129;-67
2023/04/14 10:18:53;;;;;;;6.13;2.55;;;14.90;52.10;;;;;;4997620;28;20046;-68
2023/04/14 10:21:21;;;;;;;7.88;2.55;;;15.30;51.40;;;;;;4997724;28;20064;-68
2023/04/14 10:23:47;;;;;;;5.47;1.67;;;15.70;49.50;;;;;;5003153;28;20167;-67
2023/04/14 10:26:14;;;;;;;7.50;2.67;;;15.70;49.60;;;;;;5014227;28;20094;-68
2023/04/14 10:28:43;;;;;;;8.60;2.40;;;15.50;50.30;;;;;;5012318;28;20033;-68
2023/04/14 10:31:15;;;;;;;9.68;3.15;;;15.40;50.50;;;;;;4996320;28;20049;-68
2023/04/14 10:33:42;;;;;;;8.07;2.50;;;14.80;49.60;;;;;;5012637;28;20029;-68
2023/04/14 10:36:08;;;;;;;9.95;2.55;;;14.60;52.60;;;;;;5010278;28;20083;-69
2023/04/14 10:38:39;;;;;;;7.13;2.40;;;14.50;51.70;;;;;;5010375;28;20091;-69
2023/04/14 10:41:06;;;;;;;7.78;2.30;;;14.60;51.20;;;;;;4995483;28;20041;-68
2023/04/14 10:43:34;;;;;;;7.88;2.60;;;14.70;50.90;;;;;;4996843;28;20041;-68
2023/04/14 10:45:59;;;;;;;7.47;2.97;;;14.70;51.10;;;;;;5012353;28;20453;-70
2023/04/14 10:48:27;;;;;;;5.65;2.53;;;14.60;51.20;;;;;;5001340;28;20040;-67
2023/04/14 10:51:01;;;;;;;8.70;2.85;;;14.50;51.70;;;;;;5025212;28;20124;-70
2023/04/14 10:53:56;;;;;;;6.32;2.70;;;14.60;52.40;;;;;;5008615;28;20588;-69
2023/04/14 10:56:23;;;;;;;6.05;2.47;;;14.60;52.00;;;;;;4997019;28;20056;-68
2023/04/14 10:58:56;;;;;;;8.13;2.63;;;14.60;51.70;;;;;;4996208;28;20045;-67
2023/04/14 11:01:29;;;;;;;6.85;2.42;;;14.70;51.90;;;;;;4995338;28;20099;-68
2023/04/14 11:03:55;;;;;;;7.25;2.42;;;14.80;51.30;;;;;;5011031;28;20080;-67
2023/04/14 11:06:46;;;;;;;6.90;2.35;;;15.00;52.40;;;;;;5006230;28;20045;-67
2023/04/14 11:09:41;;;;;;;9.35;2.40;;;14.90;49.50;;;;;;5004220;28;20040;-67
2023/04/14 11:12:23;;;;;;;8.18;2.40;;;14.90;52.20;;;;;;5002907;28;20092;-67
2023/04/14 11:14:54;;;;;;;4.88;1.77;;;15.00;52.90;;;;;;5014376;28;20041;-68
2023/04/14 11:17:21;;;;;;;7.03;1.95;;;15.00;50.50;;;;;;5012353;28;20152;-68
2023/04/14 11:19:47;;;;;;;3.90;1.80;;;15.20;48.90;;;;;;5011551;28;20041;-69
2023/04/14 11:22:13;;;;;;;9.18;2.22;;;15.20;49.00;;;;;;5011295;28;20044;-66
2023/04/14 11:24:39;;;;;;;6.78;2.92;;;15.30;49.30;;;;;;5010705;28;20072;-68
2023/04/14 11:27:09;;;;;;;5.05;2.10;;;15.30;48.40;;;;;;5013340;28;20048;-67
2023/04/14 11:29:35;;;;;;;8.10;2.10;;;15.20;48.90;;;;;;4996884;28;20378;-67
2023/04/14 11:32:05;;;;;;;8.05;2.03;;;15.00;48.70;;;;;;5014028;28;20040;-67
2023/04/14 11:34:31;;;;;;;9.95;2.33;;;14.60;48.20;;;;;;5011608;28;20072;-67
2023/04/14 11:37:00;;;;;;;7.05;2.17;;;14.50;48.10;;;;;;5010999;28;20041;-67
2023/04/14 11:39:27;;;;;;;5.60;1.88;;;14.50;47.70;;;;;;5009698;28;20049;-66
2023/04/14 11:41:54;;;;;;;4.85;1.80;;;14.60;47.70;;;;;;5010505;28;20033;-67
2023/04/14 11:44:20;;;;;;;7.07;2.33;;;14.50;48.30;;;;;;5014108;28;20072;-66
2023/04/14 11:46:46;;;;;;;8.80;2.05;;;14.70;48.50;;;;;;5012061;28;20469;-68
2023/04/14 11:49:12;;;;;;;5.25;1.90;;;14.80;48.50;;;;;;5011430;28;20493;-68
2023/04/14 11:51:37;;;;;;;4.30;1.83;;;14.60;48.50;;;;;;5006623;28;20434;-67
2023/04/14 11:54:03;;;;;;;6.45;2.38;;;14.40;49.40;;;;;;5008101;28;20039;-68
2023/04/14 11:56:31;;;;;;;4.90;1.75;;;14.30;49.30;;;;;;5010459;28;20041;-67
2023/04/14 11:59:04;;;;;;;4.75;1.90;;;14.20;49.50;;;;;;4996409;28;20053;-67
2023/04/14 12:01:30;;;;;;;3.97;1.80;;;14.20;49.40;;;;;;4991975;28;20073;-70
2023/04/14 12:03:57;;;;;;;7.43;2.15;;;14.40;49.00;;;;;;4994541;28;20462;-69
2023/04/14 12:06:23;;;;;;;7.35;2.20;;;14.40;49.10;;;;;;4975528;28;20490;-66
2023/04/14 12:08:53;;;;;;;6.25;1.98;;;14.50;49.30;;;;;;4994597;28;20069;-67
2023/04/14 12:11:19;;;;;;;5.18;2.08;;;14.40;48.70;;;;;;4994079;28;20040;-68
2023/04/14 12:13:46;;;;;;;7.70;1.92;;;14.40;48.50;;;;;;4996510;28;20037;-66
2023/04/14 12:16:13;;;;;;;4.22;1.98;;;14.30;47.40;;;;;;5000902;28;20100;-68
2023/04/14 12:18:39;;;;;;;7.15;2.38;;;14.20;46.60;;;;;;4981714;28;20355;-67
2023/04/14 12:21:05;;;;;;;9.00;2.20;;;14.20;47.40;;;;;;4995521;28;20489;-67
2023/04/14 12:23:41;;;;;;;6.70;2.28;;;14.10;47.60;;;;;;4981005;28;20046;-67
2023/04/14 12:26:13;;;;;;;6.40;2.65;;;14.00;47.20;;;;;;4968220;28;20038;-70
2023/04/14 12:28:40;;;;;;;5.72;2.85;;;14.10;47.60;;;;;;4995674;28;20096;-66
2023/04/14 12:31:06;;;;;;;8.20;2.35;;;14.60;48.20;;;;;;4979453;28;20115;-65
2023/04/14 12:33:32;;;;;;;8.68;2.88;;;14.90;47.10;;;;;;4996765;28;20034;-67
2023/04/14 12:36:11;;;;;;;8.52;2.83;;;15.00;47.60;;;;;;4975744;28;20955;-67
2023/04/14 12:38:37;;;;;;;7.35;2.67;;;14.80;47.60;;;;;;4987544;28;20108;-68
2023/04/14 12:41:04;;;;;;;7.03;2.80;;;14.80;47.80;;;;;;4996820;28;20038;-68
2023/04/14 12:43:34;;;;;;;7.00;2.58;;;14.60;47.50;;;;;;5010686;28;20052;-67
2023/04/14 12:46:02;;;;;;;6.57;2.95;;;14.50;47.40;;;;;;4994778;28;20396;-67
2023/04/14 12:48:43;;;;;;;6.43;2.90;;;14.40;48.00;;;;;;5010726;28;20042;-68
2023/04/14 12:51:13;;;;;;;7.05;2.83;;;14.40;48.00;;;;;;4992252;28;20133;-68
2023/04/14 12:53:41;;;;;;;;;;;14.50;47.50;;;;;;4984305;28;20034;-68
2023/04/14 12:56:08;;;;;;;6.13;2.67;;;14.40;46.50;;;;;;4994252;28;19917;-67
2023/04/14 12:58:39;;;;;;;6.60;2.60;;;14.40;48.50;;;;;;5022479;28;20045;-68